createdAt,value
2023-04-17T00:02:30.850Z,48.00
2023-04-17T00:05:04.269Z,48.70
2023-04-17T00:07:38.852Z,48.20
2023-04-17T00:10:12.605Z,48.10
2023-04-17T00:12:45.566Z,48.00
2023-04-17T00:15:18.860Z,48.10
2023-04-17T00:17:53.396Z,48.00
2023-04-17T00:20:26.602Z,48.00
2023-04-17T00:22:59.745Z,48.00
2023-04-17T00:25:32.882Z,48.00
2023-04-17T00:28:06.350Z,48.00
2023-04-17T00:30:39.539Z,48.00
2023-04-17T00:33:14.131Z,48.20
2023-04-17T00:35:47.881Z,48.00
2023-04-17T00:38:21.062Z,47.80
2023-04-17T00:40:54.264Z,47.60
2023-04-17T00:43:27.606Z,47.60
2023-04-17T00:46:01.376Z,47.50
2023-04-17T00:48:36.512Z,47.50
2023-04-17T00:51:09.711Z,47.50
2023-04-17T00:53:43.503Z,47.40
2023-04-17T00:56:16.533Z,47.40
2023-04-17T00:58:50.496Z,47.20
2023-04-17T01:01:23.870Z,47.40
2023-04-17T01:04:00.005Z,47.30
2023-04-17T01:06:33.415Z,47.30
2023-04-17T01:09:07.700Z,47.30
2023-04-17T01:11:40.827Z,47.30
2023-04-17T01:14:15.946Z,47.20
2023-04-17T01:16:49.145Z,47.20
2023-04-17T01:19:23.795Z,47.10
2023-04-17T01:21:57.653Z,47.10
2023-04-17T01:24:32.262Z,47.10
2023-04-17T01:27:06.708Z,47.00
2023-04-17T01:29:40.753Z,46.90
2023-04-17T01:32:13.912Z,47.10
2023-04-17T01:34:47.541Z,47.30
2023-04-17T01:37:20.700Z,47.40
2023-04-17T01:39:56.179Z,47.80
2023-04-17T01:42:29.779Z,47.80
2023-04-17T01:45:03.395Z,48.00
2023-04-17T01:47:36.748Z,48.10
2023-04-17T01:50:10.912Z,48.10
2023-04-17T01:52:44.226Z,48.20
2023-04-17T01:55:18.884Z,48.20
2023-04-17T01:57:53.385Z,48.30
2023-04-17T02:00:27.158Z,48.30
2023-04-17T02:03:00.366Z,48.30
2023-04-17T02:05:33.647Z,48.20
2023-04-17T02:08:07.086Z,48.30
2023-04-17T02:10:42.191Z,48.40
2023-04-17T02:13:15.543Z,48.40
2023-04-17T02:15:49.283Z,48.40
2023-04-17T02:18:22.570Z,48.50
2023-04-17T02:20:55.795Z,48.50
2023-04-17T02:23:29.175Z,48.60
2023-04-17T02:26:04.530Z,48.60
2023-04-17T02:28:37.775Z,48.60
2023-04-17T02:31:13.287Z,48.60
2023-04-17T02:33:46.499Z,48.70
2023-04-17T02:36:19.852Z,48.70
2023-04-17T02:38:53.060Z,48.80
2023-04-17T02:41:27.652Z,48.80
2023-04-17T02:44:02.143Z,48.70
2023-04-17T02:46:35.570Z,48.70
2023-04-17T02:49:09.601Z,48.70
2023-04-17T02:51:43.490Z,48.80
2023-04-17T02:54:16.703Z,48.80
2023-04-17T02:56:51.394Z,48.80
2023-04-17T02:59:24.595Z,48.90
2023-04-17T03:01:59.690Z,49.00
2023-04-17T03:04:34.520Z,48.90
2023-04-17T03:07:09.181Z,48.90
2023-04-17T03:09:42.770Z,48.90
2023-04-17T03:12:18.503Z,49.00
2023-04-17T03:14:52.418Z,49.00
2023-04-17T03:17:25.807Z,49.50
2023-04-17T03:19:59.233Z,48.90
2023-04-17T03:22:32.440Z,49.00
2023-04-17T03:25:06.747Z,48.90
2023-04-17T03:27:49.502Z,49.00
2023-04-17T03:30:25.527Z,48.90
2023-04-17T03:33:01.271Z,49.00
2023-04-17T03:35:37.572Z,49.00
2023-04-17T03:38:13.689Z,49.00
2023-04-17T03:40:46.943Z,49.00
2023-04-17T03:43:21.727Z,49.00
2023-04-17T03:45:54.921Z,48.90
2023-04-17T03:48:29.152Z,48.80
2023-04-17T03:51:02.469Z,48.90
2023-04-17T03:53:36.807Z,48.80
2023-04-17T03:56:13.523Z,48.90
2023-04-17T03:58:50.760Z,49.50
2023-04-17T04:01:28.400Z,49.00
2023-04-17T04:04:17.076Z,49.10
2023-04-17T04:06:50.424Z,49.00
2023-04-17T04:09:26.527Z,49.10
2023-04-17T04:11:59.889Z,49.00
2023-04-17T04:14:36.057Z,49.00
2023-04-17T04:17:09.931Z,49.00
2023-04-17T04:19:44.514Z,49.10
2023-04-17T04:22:18.582Z,49.10
2023-04-17T04:24:56.563Z,49.00
2023-04-17T04:27:39.673Z,49.00
2023-04-17T04:30:15.636Z,49.10
2023-04-17T04:32:51.546Z,49.10
2023-04-17T04:35:25.874Z,49.10
2023-04-17T04:38:02.226Z,49.00
2023-04-17T04:40:38.390Z,49.10
2023-04-17T04:43:12.906Z,49.00
2023-04-17T04:45:50.081Z,49.10
2023-04-17T04:48:23.471Z,49.10
2023-04-17T04:50:57.158Z,49.10
2023-04-17T04:53:31.430Z,49.10
2023-04-17T04:56:04.939Z,49.20
2023-04-17T04:58:40.284Z,49.30
2023-04-17T05:01:15.061Z,49.20
2023-04-17T05:03:51.834Z,49.40
2023-04-17T05:06:29.595Z,49.30
2023-04-17T05:09:07.130Z,49.20
2023-04-17T05:11:40.652Z,49.30
2023-04-17T05:14:14.068Z,49.10
2023-04-17T05:16:49.311Z,49.20
2023-04-17T05:19:22.751Z,49.40
2023-04-17T05:22:01.155Z,49.60
2023-04-17T05:24:36.149Z,49.60
2023-04-17T05:27:09.893Z,49.70
2023-04-17T05:29:43.840Z,49.70
2023-04-17T05:32:18.489Z,49.60
2023-04-17T05:35:01.486Z,49.60
2023-04-17T05:37:36.508Z,49.60
2023-04-17T05:40:10.706Z,49.60
2023-04-17T05:42:43.885Z,49.60
2023-04-17T05:45:18.043Z,49.50
2023-04-17T05:47:52.663Z,49.50
2023-04-17T05:50:26.967Z,49.80
2023-04-17T05:53:00.424Z,49.80
2023-04-17T05:55:37.208Z,49.90
2023-04-17T06:00:50.858Z,49.00
2023-04-17T06:03:27.250Z,48.70
2023-04-17T06:06:13.237Z,48.50
2023-04-17T06:08:46.417Z,48.30
2023-04-17T06:11:19.570Z,48.20
2023-04-17T06:13:53.581Z,48.10
2023-04-17T06:16:27.812Z,48.00
2023-04-17T06:19:02.419Z,47.80
2023-04-17T06:21:35.669Z,47.80
2023-04-17T06:24:09.792Z,47.70
2023-04-17T06:26:48.769Z,47.60
2023-04-17T06:29:22.350Z,47.60
2023-04-17T06:31:55.584Z,47.60
2023-04-17T06:34:30.578Z,47.70
2023-04-17T06:37:03.754Z,47.80
2023-04-17T06:39:36.971Z,47.90
2023-04-17T06:42:10.549Z,47.70
2023-04-17T06:44:46.161Z,47.50
2023-04-17T06:47:19.811Z,47.40
2023-04-17T06:49:54.519Z,47.50
2023-04-17T06:52:27.898Z,47.40
2023-04-17T06:55:02.336Z,47.50
2023-04-17T06:57:35.729Z,47.40
2023-04-17T07:00:10.132Z,47.30
2023-04-17T07:02:43.404Z,47.10
2023-04-17T07:05:19.712Z,46.90
2023-04-17T07:07:52.973Z,46.80
2023-04-17T07:10:26.391Z,46.60
2023-04-17T07:12:59.580Z,46.50
2023-04-17T07:15:32.864Z,46.30
2023-04-17T07:18:06.422Z,46.20
2023-04-17T07:20:41.093Z,46.10
2023-04-17T07:23:20.847Z,46.10
2023-04-17T07:25:54.091Z,46.00
2023-04-17T07:28:27.354Z,46.20
2023-04-17T07:31:00.658Z,46.40
2023-04-17T07:33:33.820Z,46.30
2023-04-17T07:36:11.237Z,46.40
2023-04-17T07:38:44.413Z,46.80
2023-04-17T07:41:17.775Z,46.20
2023-04-17T07:43:52.228Z,46.00
2023-04-17T07:46:25.543Z,45.80
2023-04-17T07:48:58.827Z,45.70
2023-04-17T07:51:33.415Z,45.60
2023-04-17T07:54:06.939Z,46.10
2023-04-17T07:56:40.647Z,46.40
2023-04-17T07:59:13.845Z,46.00
2023-04-17T08:01:47.344Z,46.00
2023-04-17T08:04:21.284Z,46.00
2023-04-17T08:06:56.356Z,46.50
2023-04-17T08:09:30.073Z,47.00
2023-04-17T08:12:03.103Z,47.10
2023-04-17T08:14:36.493Z,47.50
2023-04-17T08:17:09.804Z,47.60
2023-04-17T08:19:43.047Z,47.90
2023-04-17T08:22:19.703Z,48.30
2023-04-17T08:24:54.823Z,48.60
2023-04-17T08:27:28.011Z,48.70
2023-04-17T08:30:01.897Z,48.70
2023-04-17T08:32:39.444Z,48.90
2023-04-17T08:35:14.315Z,49.10
2023-04-17T08:37:48.889Z,49.40
2023-04-17T08:40:23.874Z,49.40
2023-04-17T08:42:57.111Z,49.40
2023-04-17T08:45:30.946Z,49.30
2023-04-17T08:48:04.094Z,49.50
2023-04-17T08:50:38.130Z,49.70
2023-04-17T08:53:12.675Z,49.40
2023-04-17T08:55:46.274Z,50.00
2023-04-17T08:58:21.921Z,49.30
2023-04-17T09:00:55.182Z,49.30
2023-04-17T09:03:41.262Z,49.50
2023-04-17T09:06:15.800Z,49.20
2023-04-17T09:09:01.900Z,49.40
2023-04-17T09:11:35.106Z,49.80
2023-04-17T09:14:28.321Z,49.80
2023-04-17T09:17:01.467Z,49.80
2023-04-17T09:19:35.348Z,50.00
2023-04-17T09:22:24.167Z,49.90
2023-04-17T09:24:58.764Z,49.80
2023-04-17T09:27:31.969Z,50.00
2023-04-17T09:30:07.111Z,50.00
2023-04-17T09:32:41.498Z,50.20
2023-04-17T09:35:26.616Z,50.10
2023-04-17T09:38:00.197Z,50.10
2023-04-17T09:40:40.636Z,50.20
2023-04-17T09:43:13.817Z,50.30
2023-04-17T09:45:47.162Z,50.20
2023-04-17T09:48:21.385Z,50.10
2023-04-17T09:50:55.550Z,50.10
2023-04-17T09:53:29.571Z,49.80
2023-04-17T09:56:06.200Z,46.80
2023-04-17T09:58:39.676Z,42.90
2023-04-17T10:01:13.905Z,41.40
2023-04-17T10:03:47.865Z,40.90
2023-04-17T10:06:21.585Z,40.70
2023-04-17T10:08:55.197Z,41.10
2023-04-17T10:11:35.262Z,41.20
2023-04-17T10:14:14.914Z,41.00
2023-04-17T10:16:49.253Z,41.00
2023-04-17T10:19:27.672Z,41.20
2023-04-17T10:22:41.016Z,41.30
2023-04-17T10:25:22.237Z,41.30
2023-04-17T10:27:59.306Z,41.70
2023-04-17T10:30:51.048Z,41.50
2023-04-17T10:33:28.019Z,42.10
2023-04-17T10:36:01.671Z,42.00
2023-04-17T10:38:36.741Z,42.30
2023-04-17T10:41:11.315Z,42.60
2023-04-17T10:43:46.925Z,42.90
2023-04-17T10:46:20.226Z,43.10
2023-04-17T10:48:54.544Z,43.30
2023-04-17T10:51:44.090Z,43.80
2023-04-17T10:54:17.439Z,44.50
2023-04-17T10:56:55.872Z,44.90
2023-04-17T10:59:32.193Z,45.40
2023-04-17T11:02:07.644Z,45.70
2023-04-17T11:04:41.066Z,46.00
2023-04-17T11:07:16.010Z,46.00
2023-04-17T11:09:52.944Z,46.00
2023-04-17T11:12:26.234Z,46.10
2023-04-17T11:15:04.615Z,46.10
2023-04-17T11:17:40.474Z,46.70
2023-04-17T11:20:15.236Z,47.20
2023-04-17T11:22:49.029Z,47.10
2023-04-17T11:25:26.185Z,47.10
2023-04-17T11:28:00.603Z,47.70
2023-04-17T11:30:36.772Z,47.90
2023-04-17T11:33:13.662Z,48.00
2023-04-17T11:35:47.104Z,48.40
2023-04-17T11:38:22.196Z,48.40
2023-04-17T11:40:59.060Z,48.50
2023-04-17T11:43:37.230Z,48.50
2023-04-17T11:46:11.826Z,48.50
2023-04-17T11:48:50.046Z,48.50
2023-04-17T11:51:23.337Z,48.40
2023-04-17T11:53:56.790Z,48.50
2023-04-17T11:56:30.955Z,48.30
2023-04-17T11:59:05.286Z,48.20
2023-04-17T12:01:53.369Z,48.10
2023-04-17T12:04:26.847Z,47.90
2023-04-17T12:07:00.153Z,47.80
2023-04-17T12:09:34.036Z,47.70
2023-04-17T12:12:08.833Z,47.70
2023-04-17T12:14:42.000Z,47.60
2023-04-17T12:17:16.528Z,47.50
2023-04-17T12:19:49.679Z,47.30
2023-04-17T12:22:23.476Z,47.20
2023-04-17T12:24:56.585Z,47.40
2023-04-17T12:27:29.759Z,47.40
2023-04-17T12:30:02.932Z,47.50
2023-04-17T12:32:38.205Z,47.60
2023-04-17T12:35:11.661Z,47.70
2023-04-17T12:37:48.583Z,47.90
2023-04-17T12:40:24.845Z,48.00
2023-04-17T12:42:58.221Z,48.10
2023-04-17T12:45:31.451Z,48.20
2023-04-17T12:48:06.486Z,48.20
2023-04-17T12:50:42.442Z,48.40
2023-04-17T12:53:16.761Z,48.30
2023-04-17T12:55:50.044Z,48.20
2023-04-17T12:58:23.218Z,48.20
2023-04-17T13:00:56.555Z,48.10
2023-04-17T13:03:31.274Z,47.90
2023-04-17T13:06:04.954Z,47.80
2023-04-17T13:08:38.171Z,47.80
2023-04-17T13:11:11.498Z,47.60
2023-04-17T13:13:44.959Z,47.70
2023-04-17T13:16:18.284Z,47.50
2023-04-17T13:18:52.798Z,47.30
2023-04-17T13:21:26.868Z,47.30
2023-04-17T13:24:00.467Z,47.20
2023-04-17T13:26:33.718Z,47.00
2023-04-17T13:29:06.873Z,46.90
2023-04-17T13:31:40.063Z,46.90
2023-04-17T13:34:14.586Z,46.90
2023-04-17T13:36:48.150Z,46.90
2023-04-17T13:39:24.857Z,46.80
2023-04-17T13:41:58.412Z,46.80
2023-04-17T13:44:32.257Z,46.70
2023-04-17T13:47:07.805Z,46.60
2023-04-17T13:49:42.400Z,46.50
2023-04-17T13:52:15.606Z,46.20
2023-04-17T13:54:49.791Z,46.40
2023-04-17T13:57:23.037Z,46.80
2023-04-17T13:59:56.227Z,47.30
2023-04-17T14:02:29.570Z,47.80
2023-04-17T14:05:05.070Z,47.70
2023-04-17T14:07:38.939Z,47.80
2023-04-17T14:10:11.938Z,48.00
2023-04-17T14:12:45.050Z,48.30
2023-04-17T14:15:19.840Z,48.30
2023-04-17T14:17:53.194Z,48.40
2023-04-17T14:20:27.735Z,48.40
2023-04-17T14:23:01.201Z,48.50
2023-04-17T14:25:34.405Z,48.50
2023-04-17T14:28:07.685Z,48.80
2023-04-17T14:30:40.908Z,48.80
2023-04-17T14:33:14.375Z,48.90
2023-04-17T14:35:49.053Z,48.90
2023-04-17T14:38:22.186Z,49.10
2023-04-17T14:40:55.368Z,49.10
2023-04-17T14:43:28.618Z,49.00
2023-04-17T14:46:02.229Z,49.10
2023-04-17T14:48:44.264Z,48.90
2023-04-17T14:51:30.650Z,48.90
2023-04-17T14:54:04.160Z,48.90
2023-04-17T14:56:37.331Z,49.00
2023-04-17T14:59:11.108Z,49.00
2023-04-17T15:01:44.614Z,49.00
2023-04-17T15:04:18.082Z,48.90
2023-04-17T15:06:52.673Z,48.90
2023-04-17T15:09:25.869Z,48.80
2023-04-17T15:11:59.005Z,48.60
2023-04-17T15:14:32.185Z,48.40
2023-04-17T15:17:07.001Z,48.40
2023-04-17T15:19:40.266Z,48.50
2023-04-17T15:22:14.822Z,48.40
2023-04-17T15:24:48.117Z,48.20
2023-04-17T15:27:21.473Z,48.20
2023-04-17T15:29:54.893Z,48.10
2023-04-17T15:32:28.224Z,48.10
2023-04-17T15:35:01.461Z,48.10
2023-04-17T15:37:36.058Z,48.50
2023-04-17T15:40:10.209Z,49.30
2023-04-17T15:42:43.650Z,49.60
2023-04-17T15:45:17.102Z,50.40
2023-04-17T15:47:50.458Z,50.70
2023-04-17T15:50:23.972Z,51.20
2023-04-17T15:52:58.528Z,50.30
2023-04-17T15:55:33.176Z,50.00
2023-04-17T15:58:06.739Z,49.80
2023-04-17T16:00:40.013Z,49.80
2023-04-17T16:03:13.315Z,50.30
2023-04-17T16:05:46.677Z,49.80
2023-04-17T16:08:21.489Z,49.80
2023-04-17T16:10:54.723Z,49.90
2023-04-17T16:13:27.943Z,50.00
2023-04-17T16:16:01.256Z,50.10
2023-04-17T16:18:34.832Z,50.40
2023-04-17T16:21:11.947Z,50.50
2023-04-17T16:23:48.694Z,50.70
2023-04-17T16:26:21.928Z,50.70
2023-04-17T16:28:55.783Z,50.80
2023-04-17T16:31:29.081Z,50.90
2023-04-17T16:34:03.108Z,50.90
2023-04-17T16:36:36.620Z,51.00
2023-04-17T16:39:12.441Z,51.80
2023-04-17T16:41:45.856Z,52.10
2023-04-17T16:44:19.082Z,52.40
2023-04-17T16:47:12.071Z,51.50
2023-04-17T16:49:45.448Z,51.40
2023-04-17T16:52:18.676Z,51.30
2023-04-17T16:54:53.288Z,51.20
2023-04-17T16:57:26.553Z,51.00
2023-04-17T16:59:59.765Z,50.90
2023-04-17T17:02:33.068Z,50.70
2023-04-17T17:05:08.056Z,50.50
2023-04-17T17:07:41.299Z,50.40
2023-04-17T17:10:15.974Z,50.30
2023-04-17T17:12:49.223Z,50.10
2023-04-17T17:15:22.514Z,49.90
2023-04-17T17:17:59.461Z,49.80
2023-04-17T17:20:33.539Z,49.70
2023-04-17T17:23:06.690Z,49.60
2023-04-17T17:25:41.391Z,49.60
2023-04-17T17:28:14.617Z,49.60
2023-04-17T17:30:48.560Z,49.50
2023-04-17T17:33:22.015Z,49.50
2023-04-17T17:35:55.945Z,49.50
2023-04-17T17:38:30.881Z,49.40
2023-04-17T17:41:06.070Z,49.30
2023-04-17T17:43:40.124Z,49.40
2023-04-17T17:46:14.073Z,49.40
2023-04-17T17:48:47.753Z,49.40
2023-04-17T17:51:22.649Z,49.30
2023-04-17T17:53:56.659Z,49.30
2023-04-17T17:56:31.296Z,49.80
2023-04-17T17:59:04.493Z,49.10
2023-04-17T18:01:37.792Z,49.20
2023-04-17T18:04:11.161Z,49.10
2023-04-17T18:06:45.006Z,49.10
2023-04-17T18:09:18.312Z,49.00
2023-04-17T18:11:53.132Z,48.90
2023-04-17T18:14:26.413Z,48.80
2023-04-17T18:16:59.788Z,48.80
2023-04-17T18:19:33.096Z,48.80
2023-04-17T18:22:06.301Z,48.60
2023-04-17T18:24:39.614Z,48.70
2023-04-17T18:27:14.312Z,48.70
2023-04-17T18:29:47.576Z,48.60
2023-04-17T18:32:21.093Z,48.80
2023-04-17T18:34:54.444Z,48.80
2023-04-17T18:37:27.770Z,48.70
2023-04-17T18:40:01.205Z,48.80
2023-04-17T18:42:35.820Z,48.70
2023-04-17T18:45:10.409Z,48.70
2023-04-17T18:47:43.649Z,48.60
2023-04-17T18:50:17.302Z,48.60
2023-04-17T18:52:51.362Z,48.60
2023-04-17T18:55:25.015Z,48.50
2023-04-17T18:58:02.568Z,48.60
2023-04-17T19:00:36.578Z,48.60
2023-04-17T19:03:10.159Z,48.80
2023-04-17T19:05:43.726Z,49.40
2023-04-17T19:08:17.221Z,49.50
2023-04-17T19:10:50.641Z,50.20
2023-04-17T19:13:25.421Z,50.60
2023-04-17T19:15:58.882Z,50.70
2023-04-17T19:18:32.634Z,50.90
2023-04-17T19:21:06.464Z,50.70
2023-04-17T19:23:39.826Z,50.90
2023-04-17T19:26:15.767Z,50.50
2023-04-17T19:28:53.026Z,50.90
2023-04-17T19:31:27.844Z,50.60
2023-04-17T19:34:03.360Z,50.70
2023-04-17T19:36:36.908Z,51.00
2023-04-17T19:39:10.150Z,51.00
2023-04-17T19:41:50.454Z,51.60
2023-04-17T19:44:27.324Z,49.90
2023-04-17T19:47:01.078Z,48.60
2023-04-17T19:49:34.303Z,47.90
2023-04-17T19:52:07.525Z,47.70
2023-04-17T19:54:42.806Z,47.50
2023-04-17T19:57:16.036Z,47.20
2023-04-17T19:59:50.746Z,47.00
2023-04-17T20:02:27.578Z,47.30
2023-04-17T20:05:11.071Z,47.60
2023-04-17T20:07:49.445Z,47.60
2023-04-17T20:10:28.412Z,47.80
2023-04-17T20:13:01.876Z,48.10
2023-04-17T20:15:36.498Z,49.00
2023-04-17T20:18:11.193Z,49.00
2023-04-17T20:20:44.524Z,49.10
2023-04-17T20:23:17.976Z,49.10
2023-04-17T20:25:51.669Z,49.00
2023-04-17T20:28:24.903Z,49.20
2023-04-17T20:30:59.565Z,49.80
2023-04-17T20:33:32.924Z,49.80
2023-04-17T20:36:07.062Z,49.60
2023-04-17T20:38:40.582Z,49.60
2023-04-17T20:41:13.854Z,49.50
2023-04-17T20:43:46.986Z,49.40
2023-04-17T20:46:21.609Z,49.30
2023-04-17T20:48:54.901Z,49.10
2023-04-17T20:51:28.785Z,49.10
2023-04-17T20:54:02.646Z,49.10
2023-04-17T20:56:36.845Z,49.60
2023-04-17T20:59:10.771Z,49.60
2023-04-17T21:01:48.706Z,49.60
2023-04-17T21:04:22.832Z,49.30
2023-04-17T21:06:57.271Z,49.00
2023-04-17T21:09:31.426Z,49.30
2023-04-17T21:12:05.650Z,49.50
2023-04-17T21:14:41.359Z,49.50
2023-04-17T21:17:19.792Z,49.30
2023-04-17T21:19:56.729Z,49.00
2023-04-17T21:22:29.865Z,49.20
2023-04-17T21:25:03.107Z,49.30
2023-04-17T21:27:36.298Z,49.70
2023-04-17T21:30:10.679Z,49.20
2023-04-17T21:32:46.137Z,49.10
2023-04-17T21:35:19.487Z,49.40
2023-04-17T21:37:52.649Z,49.30
2023-04-17T21:40:26.402Z,49.00
2023-04-17T21:43:02.690Z,49.60
2023-04-17T21:45:40.232Z,49.60
2023-04-17T21:48:15.756Z,49.40
2023-04-17T21:50:48.986Z,49.20
2023-04-17T21:53:22.232Z,49.10
2023-04-17T21:55:55.437Z,49.50
2023-04-17T21:58:29.050Z,49.90
2023-04-17T22:01:02.303Z,49.30
2023-04-17T22:03:37.017Z,49.40
2023-04-17T22:06:10.643Z,49.40
2023-04-17T22:08:44.129Z,49.40
2023-04-17T22:11:17.393Z,49.30
2023-04-17T22:13:50.643Z,49.20
2023-04-17T22:16:23.811Z,49.10
2023-04-17T22:18:58.367Z,48.80
2023-04-17T22:21:31.630Z,48.70
2023-04-17T22:24:05.186Z,48.90
2023-04-17T22:26:38.929Z,48.80
2023-04-17T22:29:12.342Z,48.70
2023-04-17T22:31:45.548Z,48.70
2023-04-17T22:34:20.268Z,48.40
2023-04-17T22:36:53.479Z,48.30
2023-04-17T22:39:26.737Z,48.30
2023-04-17T22:41:59.946Z,48.20
2023-04-17T22:44:33.162Z,48.00
2023-04-17T22:47:06.459Z,47.90
2023-04-17T22:49:41.620Z,47.70
2023-04-17T22:52:14.796Z,47.70
2023-04-17T22:54:47.940Z,47.60
2023-04-17T22:57:21.148Z,47.50
2023-04-17T22:59:54.435Z,47.50
2023-04-17T23:02:27.775Z,47.40
2023-04-17T23:05:02.391Z,47.50
2023-04-17T23:07:35.603Z,47.60
2023-04-17T23:10:09.780Z,47.90
2023-04-17T23:12:42.941Z,48.00
2023-04-17T23:15:16.109Z,48.20
2023-04-17T23:17:49.255Z,48.30
2023-04-17T23:20:24.889Z,48.40
2023-04-17T23:22:58.102Z,48.40
2023-04-17T23:25:31.245Z,48.40
2023-04-17T23:28:04.404Z,48.50
2023-04-17T23:30:37.667Z,48.50
2023-04-17T23:33:10.833Z,48.60
2023-04-17T23:35:45.343Z,48.60
2023-04-17T23:38:18.541Z,48.60
2023-04-17T23:40:51.788Z,48.60
2023-04-17T23:43:25.029Z,48.60
2023-04-17T23:46:00.433Z,48.60
2023-04-17T23:48:33.573Z,48.50
2023-04-17T23:51:08.898Z,48.40
2023-04-17T23:53:42.074Z,48.40
2023-04-17T23:56:16.180Z,48.30
2023-04-17T23:58:49.328Z,48.20
